X  CloseMetar Aviation Weather Data     KIMT Ford Airport

Temperature

66°F Temperature

54°F Dewpoint

64% Humidity



Wind

 6 MPH

10 KM/H

 3 M/S

 5 KTS



120°
East South
East
Current Conditions

Clear Clear
Pressure 1012.22 (hPa) - 29.89 (in)
Visibility 9.9 (mi) - 16 (km)
Airport
Airport-code KIMT

Location Ford Airport 14 (mi)

Metar:
KIMT 171354Z AUTO 12005KT 10SM CLR 19/12 A2989 RMK AO2 SLP121 T01890122

Time: 17-09-2021 8:54